createdAt,value
2023-02-23T00:02:07.230Z,16.70
2023-02-23T00:04:35.529Z,29.30
2023-02-23T00:07:03.100Z,56.75
2023-02-23T00:09:34.850Z,83.97
2023-02-23T00:12:08.576Z,69.10
2023-02-23T00:14:37.562Z,56.72
2023-02-23T00:17:13.611Z,45.00
2023-02-23T00:19:42.864Z,41.75
2023-02-23T00:22:10.180Z,27.25
2023-02-23T00:24:41.606Z,28.60
2023-02-23T00:27:08.779Z,25.60
2023-02-23T00:29:39.480Z,24.77
2023-02-23T00:32:07.448Z,23.70
2023-02-23T00:34:36.405Z,33.30
2023-02-23T00:37:04.366Z,29.55
2023-02-23T00:39:31.537Z,31.85
2023-02-23T00:42:02.733Z,32.70
2023-02-23T00:44:31.724Z,30.73
2023-02-23T00:46:59.798Z,35.60
2023-02-23T00:49:27.788Z,28.38
2023-02-23T00:51:55.092Z,30.27
2023-02-23T00:54:22.452Z,33.85
2023-02-23T00:56:50.188Z,27.65
2023-02-23T00:59:18.948Z,24.45
2023-02-23T01:01:46.986Z,18.60
2023-02-23T01:04:14.631Z,19.67
2023-02-23T01:06:42.556Z,22.77
2023-02-23T01:09:21.225Z,15.82
2023-02-23T01:11:49.602Z,17.80
2023-02-23T01:14:17.187Z,24.15
2023-02-23T01:16:44.468Z,21.40
2023-02-23T01:19:11.853Z,19.67
2023-02-23T01:21:41.954Z,18.88
2023-02-23T01:24:11.275Z,18.02
2023-02-23T01:26:42.567Z,25.88
2023-02-23T01:29:16.761Z,15.30
2023-02-23T01:31:47.886Z,23.55
2023-02-23T01:34:21.026Z,18.88
2023-02-23T01:36:48.268Z,15.48
2023-02-23T01:39:18.938Z,15.05
2023-02-23T01:41:46.329Z,17.00
2023-02-23T01:44:14.936Z,19.13
2023-02-23T01:46:45.619Z,23.33
2023-02-23T01:49:19.569Z,41.17
2023-02-23T01:51:55.032Z,29.27
2023-02-23T01:54:30.537Z,41.33
2023-02-23T01:57:02.066Z,43.50
2023-02-23T01:59:36.301Z,31.67
2023-02-23T02:02:04.760Z,19.02
2023-02-23T02:04:43.907Z,16.60
2023-02-23T02:07:17.107Z,22.50
2023-02-23T02:10:12.394Z,20.75
2023-02-23T02:12:44.732Z,18.77
2023-02-23T02:15:16.979Z,17.75
2023-02-23T02:18:08.692Z,23.77
2023-02-23T02:21:03.934Z,23.40
2023-02-23T02:23:52.276Z,21.63
2023-02-23T02:26:43.188Z,19.88
2023-02-23T02:29:42.376Z,24.92
2023-02-23T02:32:59.074Z,24.60
2023-02-23T02:35:49.572Z,17.25
2023-02-23T02:38:42.442Z,21.70
2023-02-23T02:41:20.078Z,18.42
2023-02-23T02:44:13.256Z,20.67
2023-02-23T02:46:49.201Z,24.05
2023-02-23T02:49:33.782Z,28.42
2023-02-23T02:52:12.476Z,22.05
2023-02-23T02:54:52.885Z,19.03
2023-02-23T02:57:24.683Z,20.10
2023-02-23T03:00:11.337Z,30.17
2023-02-23T03:02:59.468Z,31.23
2023-02-23T03:05:54.613Z,30.85
2023-02-23T03:09:19.495Z,32.97
2023-02-23T03:12:35.003Z,33.88
2023-02-23T03:15:40.063Z,41.17
2023-02-23T03:18:41.157Z,42.92
2023-02-23T03:21:41.196Z,100.43
2023-02-23T03:24:46.562Z,149.75
2023-02-23T03:27:59.575Z,121.90
2023-02-23T03:30:54.346Z,133.20
2023-02-23T03:34:25.627Z,80.10
2023-02-23T03:37:28.811Z,62.53
2023-02-23T03:40:43.869Z,75.60
2023-02-23T03:43:46.308Z,69.03
2023-02-23T03:46:34.859Z,39.42
2023-02-23T03:49:27.432Z,37.78
2023-02-23T03:52:21.721Z,36.35
2023-02-23T03:55:16.532Z,35.10
2023-02-23T03:58:07.141Z,37.25
2023-02-23T04:01:01.361Z,44.67
2023-02-23T04:03:51.040Z,44.83
2023-02-23T04:06:38.852Z,39.05
2023-02-23T04:09:25.894Z,40.28
2023-02-23T04:12:44.132Z,49.30
2023-02-23T04:15:31.425Z,36.53
2023-02-23T04:17:59.031Z,37.17
2023-02-23T04:20:27.122Z,35.00
2023-02-23T04:22:54.348Z,35.55
2023-02-23T04:25:26.254Z,28.25
2023-02-23T04:27:53.888Z,28.20
2023-02-23T04:30:24.602Z,31.38
2023-02-23T04:32:52.656Z,27.60
2023-02-23T04:35:20.296Z,22.02
2023-02-23T04:37:47.658Z,23.77
2023-02-23T04:40:14.981Z,25.00
2023-02-23T04:42:42.112Z,35.50
2023-02-23T04:45:10.185Z,82.03
2023-02-23T04:47:37.635Z,26.83
2023-02-23T04:50:05.683Z,24.33
2023-02-23T04:52:34.431Z,23.63
2023-02-23T04:55:01.657Z,22.77
2023-02-23T04:57:28.991Z,24.02
2023-02-23T04:59:56.244Z,27.33
2023-02-23T05:02:24.463Z,29.27
2023-02-23T05:04:52.006Z,28.15
2023-02-23T05:07:19.244Z,27.23
2023-02-23T05:09:46.408Z,23.35
2023-02-23T05:12:13.813Z,26.00
2023-02-23T05:14:41.810Z,29.90
2023-02-23T05:17:09.023Z,27.15
2023-02-23T05:19:37.426Z,33.67
2023-02-23T05:22:04.737Z,26.77
2023-02-23T05:24:31.920Z,36.00
2023-02-23T05:26:59.097Z,82.93
2023-02-23T05:29:26.304Z,64.50
2023-02-23T05:31:53.552Z,58.97
2023-02-23T05:34:20.925Z,48.70
2023-02-23T05:36:48.027Z,39.20
2023-02-23T05:39:15.274Z,43.47
2023-02-23T05:41:42.667Z,38.28
2023-02-23T05:44:09.855Z,49.53
2023-02-23T05:46:37.714Z,39.53
2023-02-23T05:49:04.933Z,72.55
2023-02-23T05:51:34.389Z,58.25
2023-02-23T05:54:01.630Z,50.58
2023-02-23T05:56:29.128Z,43.67
2023-02-23T05:58:58.334Z,51.10
2023-02-23T06:01:27.111Z,49.60
2023-02-23T06:03:55.491Z,35.47
2023-02-23T06:06:24.857Z,45.72
2023-02-23T06:08:53.368Z,35.67
2023-02-23T06:11:21.214Z,40.28
2023-02-23T06:13:49.241Z,46.42
2023-02-23T06:16:16.585Z,41.47
2023-02-23T06:18:43.855Z,49.53
2023-02-23T06:21:11.077Z,34.60
2023-02-23T06:23:41.215Z,34.60
2023-02-23T06:26:09.082Z,38.97
2023-02-23T06:28:36.369Z,26.65
2023-02-23T06:31:03.780Z,25.65
2023-02-23T06:33:33.638Z,29.88
2023-02-23T06:36:00.807Z,35.75
2023-02-23T06:38:28.754Z,30.27
2023-02-23T06:40:56.002Z,25.42
2023-02-23T06:43:23.503Z,26.35
2023-02-23T06:45:51.038Z,26.25
2023-02-23T06:48:18.152Z,28.90
2023-02-23T06:50:45.329Z,28.27
2023-02-23T06:53:12.534Z,23.45
2023-02-23T06:55:39.683Z,24.70
2023-02-23T06:58:07.406Z,32.03
2023-02-23T07:00:34.681Z,26.67
2023-02-23T07:03:01.860Z,22.00
2023-02-23T07:05:29.084Z,22.98
2023-02-23T07:07:56.502Z,28.90
2023-02-23T07:10:23.720Z,29.67
2023-02-23T07:12:52.544Z,37.50
2023-02-23T07:15:20.298Z,29.83
2023-02-23T07:17:48.804Z,31.10
2023-02-23T07:20:16.371Z,22.52
2023-02-23T07:22:43.600Z,24.40
2023-02-23T07:25:11.540Z,24.63
2023-02-23T07:27:39.027Z,33.28
2023-02-23T07:30:07.378Z,25.83
2023-02-23T07:32:34.816Z,40.58
2023-02-23T07:35:03.874Z,26.95
2023-02-23T07:37:31.160Z,33.08
2023-02-23T07:40:00.789Z,31.65
2023-02-23T07:42:28.797Z,27.42
2023-02-23T07:44:56.190Z,33.40
2023-02-23T07:47:30.303Z,48.28
2023-02-23T07:50:07.427Z,26.10
2023-02-23T07:52:36.499Z,40.83
2023-02-23T07:55:04.804Z,49.03
2023-02-23T07:57:32.526Z,36.13
2023-02-23T07:59:59.945Z,27.50
2023-02-23T08:02:31.730Z,35.17
2023-02-23T08:04:59.355Z,45.58
2023-02-23T08:07:26.479Z,50.88
2023-02-23T08:09:53.745Z,45.00
2023-02-23T08:12:21.059Z,50.97
2023-02-23T08:14:48.563Z,39.80
2023-02-23T08:17:15.960Z,47.40
2023-02-23T08:19:43.275Z,39.90
2023-02-23T08:22:10.716Z,67.13
2023-02-23T08:24:38.076Z,40.50
2023-02-23T08:27:05.453Z,46.90
2023-02-23T08:29:34.278Z,40.55
2023-02-23T08:32:03.627Z,52.03
2023-02-23T08:36:59.247Z,44.30
2023-02-23T08:39:26.615Z,38.50
2023-02-23T08:41:54.974Z,49.08
2023-02-23T08:44:22.369Z,36.60
2023-02-23T08:46:49.590Z,24.60
2023-02-23T08:49:16.803Z,21.92
2023-02-23T08:51:46.322Z,23.80
2023-02-23T08:54:15.620Z,24.10
2023-02-23T08:56:44.216Z,20.52
2023-02-23T08:59:15.018Z,22.27
2023-02-23T09:01:42.654Z,15.90
2023-02-23T09:04:10.048Z,23.00
2023-02-23T09:06:37.664Z,24.27
2023-02-23T09:09:05.153Z,27.23
2023-02-23T09:11:32.588Z,17.25
2023-02-23T09:13:59.819Z,14.60
2023-02-23T09:16:27.045Z,23.70
2023-02-23T09:18:54.644Z,15.02
2023-02-23T09:21:24.739Z,18.98
2023-02-23T09:23:55.483Z,32.70
2023-02-23T09:26:27.929Z,15.52
2023-02-23T09:28:58.339Z,21.98
2023-02-23T09:31:25.799Z,13.25
2023-02-23T09:33:54.283Z,20.45
2023-02-23T09:36:25.997Z,17.83
2023-02-23T09:38:57.201Z,18.88
2023-02-23T09:41:49.274Z,18.00
2023-02-23T09:44:25.751Z,16.42
2023-02-23T09:47:11.417Z,11.93
2023-02-23T09:49:41.928Z,12.82
2023-02-23T09:52:21.939Z,25.60
2023-02-23T09:54:49.513Z,13.93
2023-02-23T09:57:24.566Z,11.50
2023-02-23T09:59:52.587Z,21.13
2023-02-23T10:02:25.641Z,10.27
2023-02-23T10:05:09.303Z,9.50
2023-02-23T10:07:52.170Z,11.48
2023-02-23T10:10:28.263Z,12.18
2023-02-23T10:13:37.854Z,11.65
2023-02-23T10:16:14.415Z,14.30
2023-02-23T10:19:05.910Z,9.65
2023-02-23T10:21:41.604Z,8.13
2023-02-23T10:24:29.382Z,8.95
2023-02-23T10:27:07.422Z,14.43
2023-02-23T10:29:50.803Z,9.45
2023-02-23T10:32:46.220Z,12.65
2023-02-23T10:35:19.821Z,7.53
2023-02-23T10:37:48.806Z,6.75
2023-02-23T10:40:27.728Z,10.65
2023-02-23T10:42:57.226Z,15.60
2023-02-23T10:45:27.841Z,11.48
2023-02-23T10:48:08.012Z,5.78
2023-02-23T10:50:38.831Z,5.15
2023-02-23T10:53:26.677Z,7.93
2023-02-23T10:56:06.352Z,8.48
2023-02-23T10:58:42.288Z,5.85
2023-02-23T11:01:09.876Z,11.90
2023-02-23T11:03:57.524Z,9.23
2023-02-23T11:06:39.065Z,8.90
2023-02-23T11:09:44.480Z,6.18
2023-02-23T11:12:21.220Z,5.65
2023-02-23T11:14:50.776Z,5.00
2023-02-23T11:17:34.097Z,9.20
2023-02-23T11:20:39.748Z,7.65
2023-02-23T11:23:15.065Z,6.88
2023-02-23T11:25:45.150Z,9.32
2023-02-23T11:28:33.771Z,10.20
2023-02-23T11:31:27.900Z,8.52
2023-02-23T11:33:56.751Z,7.90
2023-02-23T11:36:23.851Z,62.38
2023-02-23T11:39:22.970Z,9.52
2023-02-23T11:44:41.814Z,6.10
2023-02-23T11:47:22.414Z,9.05
2023-02-23T11:49:50.750Z,5.65
2023-02-23T11:52:22.213Z,8.25
2023-02-23T11:54:58.258Z,9.10
2023-02-23T11:57:31.378Z,12.68
2023-02-23T12:00:02.341Z,4.93
2023-02-23T12:03:06.982Z,5.30
2023-02-23T12:05:34.932Z,6.88
2023-02-23T12:08:34.439Z,4.85
2023-02-23T12:11:11.893Z,5.18
2023-02-23T12:13:50.211Z,5.25
2023-02-23T12:16:25.766Z,4.67
2023-02-23T12:19:19.924Z,8.20
2023-02-23T12:22:01.925Z,5.65
2023-02-23T12:24:59.200Z,5.43
2023-02-23T12:27:33.525Z,6.57
2023-02-23T12:30:41.172Z,4.70
2023-02-23T12:33:43.700Z,5.78
2023-02-23T12:36:37.902Z,8.50
2023-02-23T12:39:29.802Z,9.52
2023-02-23T12:42:01.475Z,5.78
2023-02-23T12:44:58.257Z,6.53
2023-02-23T12:47:46.303Z,6.53
2023-02-23T12:50:25.337Z,7.47
2023-02-23T12:53:43.627Z,16.77
2023-02-23T12:56:25.971Z,8.63
2023-02-23T12:59:31.434Z,7.28
2023-02-23T13:02:08.043Z,8.85
2023-02-23T13:05:01.977Z,8.00
2023-02-23T13:08:07.964Z,17.40
2023-02-23T13:10:51.850Z,12.85
2023-02-23T13:16:18.231Z,6.38
2023-02-23T13:19:20.266Z,10.23
2023-02-23T13:22:25.148Z,14.05
2023-02-23T13:24:56.714Z,13.90
2023-02-23T13:27:51.371Z,10.68
2023-02-23T13:30:20.247Z,9.63
2023-02-23T13:32:48.139Z,10.80
2023-02-23T13:35:22.512Z,15.77
2023-02-23T13:38:12.341Z,13.20
2023-02-23T13:41:07.340Z,16.30
2023-02-23T13:43:48.934Z,11.90
2023-02-23T13:46:42.786Z,11.43
2023-02-23T13:49:28.426Z,11.10
2023-02-23T13:52:01.857Z,14.13
2023-02-23T13:54:34.526Z,11.98
2023-02-23T13:57:16.193Z,9.55
2023-02-23T13:59:45.381Z,11.48
2023-02-23T14:05:01.074Z,14.85
2023-02-23T14:07:31.805Z,12.60
2023-02-23T14:10:09.780Z,12.20
2023-02-23T14:13:02.057Z,10.85
2023-02-23T14:15:40.570Z,10.88
2023-02-23T14:18:25.596Z,10.55
2023-02-23T14:21:23.966Z,10.65
2023-02-23T14:24:18.120Z,14.65
2023-02-23T14:27:07.747Z,17.95
2023-02-23T14:29:44.807Z,14.20
2023-02-23T14:32:15.286Z,20.70
2023-02-23T14:35:02.125Z,13.93
2023-02-23T14:37:40.887Z,16.85
2023-02-23T14:40:28.880Z,16.10
2023-02-23T14:43:00.293Z,26.90
2023-02-23T14:45:38.305Z,16.90
2023-02-23T14:48:12.903Z,31.92
2023-02-23T14:50:41.026Z,14.63
2023-02-23T14:53:21.826Z,18.58
2023-02-23T14:55:49.637Z,16.85
2023-02-23T14:58:28.039Z,12.02
2023-02-23T15:00:55.311Z,25.15
2023-02-23T15:03:22.469Z,16.23
2023-02-23T15:06:00.109Z,16.98
2023-02-23T15:08:30.590Z,31.05
2023-02-23T15:11:11.794Z,20.15
2023-02-23T15:13:47.407Z,32.45
2023-02-23T15:16:31.186Z,23.08
2023-02-23T15:19:00.815Z,27.38
2023-02-23T15:21:28.322Z,31.25
2023-02-23T15:24:12.372Z,29.63
2023-02-23T15:26:43.416Z,26.70
2023-02-23T15:29:12.919Z,15.93
2023-02-23T15:31:57.532Z,12.82
2023-02-23T15:34:27.695Z,19.15
2023-02-23T15:37:06.293Z,16.45
2023-02-23T15:39:39.390Z,18.63
2023-02-23T15:42:14.182Z,23.83
2023-02-23T15:44:45.007Z,25.60
2023-02-23T15:47:27.843Z,23.02
2023-02-23T15:50:16.465Z,29.35
2023-02-23T15:52:49.579Z,30.42
2023-02-23T15:55:37.690Z,33.53
2023-02-23T15:58:29.683Z,37.10
2023-02-23T16:01:24.207Z,38.05
2023-02-23T16:04:15.687Z,25.85
2023-02-23T16:07:06.542Z,25.45
2023-02-23T16:09:38.849Z,16.08
2023-02-23T16:12:15.809Z,22.58
2023-02-23T16:15:16.048Z,14.90
2023-02-23T16:17:52.803Z,20.38
2023-02-23T16:20:22.702Z,15.30
2023-02-23T16:22:53.110Z,17.30
2023-02-23T16:25:24.127Z,12.93
2023-02-23T16:28:16.448Z,18.70
2023-02-23T16:30:57.833Z,22.83
2023-02-23T16:33:45.752Z,18.92
2023-02-23T16:36:23.579Z,21.55
2023-02-23T16:39:05.630Z,14.48
2023-02-23T16:41:34.789Z,19.30
2023-02-23T16:44:05.498Z,15.55
2023-02-23T16:47:01.393Z,15.02
2023-02-23T16:49:29.599Z,15.63
2023-02-23T16:51:58.428Z,24.90
2023-02-23T16:54:26.987Z,14.30
2023-02-23T16:56:55.316Z,20.45
2023-02-23T16:59:23.147Z,18.15
2023-02-23T17:01:50.672Z,15.60
2023-02-23T17:04:20.640Z,11.93
2023-02-23T17:06:57.145Z,20.17
2023-02-23T17:09:24.950Z,15.80
2023-02-23T17:11:52.094Z,14.27
2023-02-23T17:14:27.638Z,14.95
2023-02-23T17:16:54.945Z,18.58
2023-02-23T17:19:24.669Z,17.83
2023-02-23T17:21:53.388Z,14.55
2023-02-23T17:24:25.252Z,15.10
2023-02-23T17:26:54.876Z,13.35
2023-02-23T17:29:22.090Z,15.43
2023-02-23T17:31:50.303Z,22.20
2023-02-23T17:34:17.976Z,13.88
2023-02-23T17:36:45.315Z,16.00
2023-02-23T17:39:13.533Z,18.42
2023-02-23T17:41:40.966Z,17.58
2023-02-23T17:44:08.195Z,13.80
2023-02-23T17:46:35.482Z,15.43
2023-02-23T17:49:03.034Z,18.20
2023-02-23T17:51:30.471Z,21.35
2023-02-23T17:53:57.839Z,19.48
2023-02-23T17:56:25.400Z,16.52
2023-02-23T17:58:52.658Z,17.08
2023-02-23T18:01:20.411Z,11.63
2023-02-23T18:03:49.655Z,20.38
2023-02-23T18:06:16.962Z,14.60
2023-02-23T18:08:44.785Z,16.67
2023-02-23T18:11:12.275Z,15.27
2023-02-23T18:13:39.570Z,14.00
2023-02-23T18:16:09.815Z,22.08
2023-02-23T18:18:44.036Z,15.95
2023-02-23T18:21:19.165Z,17.70
2023-02-23T18:23:47.771Z,17.35
2023-02-23T18:26:20.361Z,16.17
2023-02-23T18:28:47.831Z,19.17
2023-02-23T18:31:22.720Z,22.70
2023-02-23T18:33:53.715Z,17.38
2023-02-23T18:36:25.728Z,21.90
2023-02-23T18:38:55.016Z,20.20
2023-02-23T18:43:50.047Z,25.00
2023-02-23T18:46:17.453Z,26.10
2023-02-23T18:48:48.126Z,20.75
2023-02-23T18:51:15.528Z,21.20
2023-02-23T18:53:43.994Z,24.90
2023-02-23T18:56:14.652Z,26.08
2023-02-23T18:58:44.334Z,20.02
2023-02-23T19:01:17.445Z,24.88
2023-02-23T19:03:45.069Z,19.48
2023-02-23T19:06:15.376Z,20.13
2023-02-23T19:08:53.495Z,18.38
2023-02-23T19:11:34.916Z,15.90
2023-02-23T19:14:11.013Z,19.02
2023-02-23T19:16:40.479Z,23.67
2023-02-23T19:21:37.082Z,18.65
2023-02-23T19:24:05.647Z,17.48
2023-02-23T19:26:36.678Z,23.23
2023-02-23T19:29:04.447Z,15.38
2023-02-23T19:31:32.095Z,17.27
2023-02-23T19:34:02.796Z,15.48
2023-02-23T19:36:31.200Z,16.42
2023-02-23T19:39:09.932Z,14.93
2023-02-23T19:41:39.274Z,16.45
2023-02-23T19:44:07.481Z,18.05
2023-02-23T19:46:36.145Z,16.88
2023-02-23T19:49:05.191Z,13.95
2023-02-23T19:51:32.778Z,15.05
2023-02-23T19:54:00.372Z,16.70
2023-02-23T19:56:28.279Z,19.33
2023-02-23T19:58:57.104Z,17.27
2023-02-23T20:01:27.012Z,15.10
2023-02-23T20:03:56.214Z,17.90
2023-02-23T20:06:25.605Z,17.08
2023-02-23T20:08:54.433Z,19.27
2023-02-23T20:11:22.459Z,14.85
2023-02-23T20:13:53.132Z,16.25
2023-02-23T20:16:21.086Z,13.23
2023-02-23T20:18:48.350Z,14.82
2023-02-23T20:21:22.642Z,14.40
2023-02-23T20:23:50.967Z,14.20
2023-02-23T20:26:25.899Z,13.55
2023-02-23T20:28:54.260Z,11.82
2023-02-23T20:31:34.635Z,15.52
2023-02-23T20:34:07.087Z,14.25
2023-02-23T20:36:34.277Z,14.55
2023-02-23T20:39:01.564Z,13.63
2023-02-23T20:41:30.955Z,12.90
2023-02-23T20:44:00.268Z,16.67
2023-02-23T20:46:29.988Z,12.55
2023-02-23T20:48:58.600Z,12.80
2023-02-23T20:51:26.428Z,10.60
2023-02-23T20:53:53.671Z,9.38
2023-02-23T20:56:21.853Z,13.38
2023-02-23T20:58:50.021Z,11.80
2023-02-23T21:01:25.478Z,13.32
2023-02-23T21:03:55.758Z,10.85
2023-02-23T21:06:24.393Z,12.77
2023-02-23T21:08:55.096Z,10.10
2023-02-23T21:11:26.900Z,13.50
2023-02-23T21:13:54.625Z,10.85
2023-02-23T21:16:23.741Z,14.75
2023-02-23T21:18:56.349Z,13.95
2023-02-23T21:21:23.646Z,9.65
2023-02-23T21:23:50.820Z,12.35
2023-02-23T21:26:20.951Z,11.68
2023-02-23T21:28:48.624Z,15.65
2023-02-23T21:31:16.455Z,14.68
2023-02-23T21:33:44.673Z,12.10
2023-02-23T21:36:12.604Z,11.50
2023-02-23T21:38:43.484Z,9.30
2023-02-23T21:41:13.276Z,11.90
2023-02-23T21:43:42.703Z,12.48
2023-02-23T21:46:14.666Z,8.88
2023-02-23T21:48:43.436Z,11.30
2023-02-23T21:51:14.373Z,9.23
2023-02-23T21:53:43.473Z,14.82
2023-02-23T21:56:17.625Z,16.75
2023-02-23T21:58:49.449Z,16.90
2023-02-23T22:01:27.497Z,8.90
2023-02-23T22:03:55.498Z,6.90
2023-02-23T22:06:26.280Z,10.82
2023-02-23T22:08:54.789Z,9.20
2023-02-23T22:11:25.859Z,10.65
2023-02-23T22:13:59.170Z,9.13
2023-02-23T22:16:31.486Z,7.35
2023-02-23T22:19:02.931Z,11.45
2023-02-23T22:21:36.324Z,10.13
2023-02-23T22:24:05.405Z,9.75
2023-02-23T22:26:36.713Z,12.63
2023-02-23T22:29:06.536Z,14.40
2023-02-23T22:31:33.836Z,8.35
2023-02-23T22:34:01.118Z,10.10
2023-02-23T22:36:28.889Z,10.20
2023-02-23T22:39:00.166Z,9.77
2023-02-23T22:41:29.020Z,10.40
2023-02-23T22:43:57.555Z,13.98
2023-02-23T22:46:25.728Z,8.13
2023-02-23T22:48:53.082Z,12.30
2023-02-23T22:51:20.519Z,10.00
2023-02-23T22:53:48.150Z,10.82
2023-02-23T22:56:15.240Z,8.35
2023-02-23T22:58:42.571Z,14.13
2023-02-23T23:01:11.326Z,12.73
2023-02-23T23:03:45.149Z,9.98
2023-02-23T23:06:22.066Z,9.95
2023-02-23T23:08:54.345Z,14.77
2023-02-23T23:11:25.652Z,10.93
2023-02-23T23:14:02.319Z,10.52
2023-02-23T23:16:33.277Z,12.63
2023-02-23T23:19:11.325Z,10.75
2023-02-23T23:21:40.916Z,9.75
2023-02-23T23:24:12.636Z,12.13
2023-02-23T23:26:42.342Z,12.95
2023-02-23T23:29:13.232Z,16.00
2023-02-23T23:31:44.658Z,10.60
2023-02-23T23:34:15.702Z,10.93
2023-02-23T23:36:48.545Z,12.43
2023-02-23T23:39:17.929Z,19.95
2023-02-23T23:41:49.084Z,11.40
2023-02-23T23:44:20.611Z,8.10
2023-02-23T23:46:50.044Z,10.13
2023-02-23T23:49:21.243Z,12.52
2023-02-23T23:51:55.432Z,8.27
2023-02-23T23:54:27.005Z,12.45
2023-02-23T23:56:54.769Z,9.13
2023-02-23T23:59:25.743Z,10.38
